createdAt,value
2019-03-28T00:01:18.355Z,8.91
2019-03-28T00:03:49.263Z,8.90
2019-03-28T00:06:19.741Z,8.82
2019-03-28T00:08:50.528Z,8.88
2019-03-28T00:11:21.268Z,8.90
2019-03-28T00:13:53.642Z,8.95
2019-03-28T00:16:24.466Z,8.86
2019-03-28T00:18:57.546Z,8.94
2019-03-28T00:21:27.805Z,8.85
2019-03-28T00:24:03.222Z,8.92
2019-03-28T00:26:33.984Z,8.83
2019-03-28T00:29:04.545Z,8.90
2019-03-28T00:31:38.186Z,8.92
2019-03-28T00:34:09.033Z,8.96
2019-03-28T00:36:39.894Z,8.92
2019-03-28T00:39:10.597Z,8.86
2019-03-28T00:41:41.037Z,8.98
2019-03-28T00:44:11.866Z,8.90
2019-03-28T00:46:42.738Z,8.90
2019-03-28T00:49:13.527Z,8.86
2019-03-28T00:51:44.468Z,8.82
2019-03-28T00:54:15.348Z,8.84
2019-03-28T00:56:47.892Z,8.96
2019-03-28T00:59:20.156Z,8.76
2019-03-28T01:01:51.948Z,8.78
2019-03-28T01:04:22.986Z,8.92
2019-03-28T01:06:53.928Z,8.79
2019-03-28T01:09:24.866Z,8.82
2019-03-28T01:11:55.300Z,8.72
2019-03-28T01:14:27.670Z,8.70
2019-03-28T01:16:58.504Z,8.73
2019-03-28T01:19:29.438Z,8.71
2019-03-28T01:22:00.240Z,8.76
2019-03-28T01:24:31.180Z,8.74
2019-03-28T01:27:02.048Z,8.93
2019-03-28T01:29:36.059Z,8.92
2019-03-28T01:32:08.020Z,8.82
2019-03-28T01:34:38.848Z,8.80
2019-03-28T01:37:11.896Z,8.74
2019-03-28T01:39:42.453Z,8.84
2019-03-28T01:42:13.402Z,8.76
2019-03-28T01:44:44.250Z,8.80
2019-03-28T01:47:15.148Z,8.80
2019-03-28T01:49:46.028Z,8.88
2019-03-28T01:52:16.748Z,8.97
2019-03-28T01:54:47.325Z,8.77
2019-03-28T01:57:18.382Z,8.76
2019-03-28T01:59:58.160Z,8.79
2019-03-28T02:02:28.572Z,8.74
2019-03-28T02:04:59.443Z,8.68
2019-03-28T02:07:30.158Z,8.71
2019-03-28T02:10:01.062Z,8.60
2019-03-28T02:12:31.850Z,8.72
2019-03-28T02:15:02.812Z,8.78
2019-03-28T02:17:33.747Z,8.66
2019-03-28T02:20:07.413Z,8.80
2019-03-28T02:22:38.327Z,8.78
2019-03-28T02:25:09.434Z,8.84
2019-03-28T02:27:40.258Z,8.83
2019-03-28T02:30:11.707Z,8.81
2019-03-28T02:32:42.683Z,8.73
2019-03-28T02:35:13.160Z,8.79
2019-03-28T02:37:44.001Z,8.72
2019-03-28T02:40:14.836Z,8.78
2019-03-28T02:42:45.675Z,8.70
2019-03-28T02:45:16.496Z,8.76
2019-03-28T02:47:46.909Z,8.66
2019-03-28T02:50:17.756Z,8.72
2019-03-28T02:52:48.169Z,8.80
2019-03-28T02:55:18.957Z,8.71
2019-03-28T02:57:49.663Z,8.76
2019-03-28T03:00:20.914Z,8.68
2019-03-28T03:02:52.066Z,8.68
2019-03-28T03:05:22.995Z,8.66
2019-03-28T03:07:53.729Z,8.67
2019-03-28T03:10:24.570Z,8.58
2019-03-28T03:12:55.307Z,8.74
2019-03-28T03:15:26.217Z,8.71
2019-03-28T03:17:56.978Z,8.85
2019-03-28T03:20:27.710Z,8.74
2019-03-28T03:22:58.555Z,8.62
2019-03-28T03:25:29.383Z,8.72
2019-03-28T03:28:00.130Z,8.78
2019-03-28T03:30:31.745Z,8.70
2019-03-28T03:33:03.174Z,8.66
2019-03-28T03:35:34.062Z,8.80
2019-03-28T03:38:04.899Z,8.67
2019-03-28T03:40:35.863Z,8.78
2019-03-28T03:43:06.366Z,8.68
2019-03-28T03:45:37.300Z,8.64
2019-03-28T03:48:08.149Z,8.75
2019-03-28T03:50:39.045Z,8.80
2019-03-28T03:53:09.819Z,8.71
2019-03-28T03:55:40.574Z,8.60
2019-03-28T03:58:16.097Z,8.67
2019-03-28T04:00:44.043Z,8.63
2019-03-28T04:03:14.795Z,8.70
2019-03-28T04:05:45.663Z,8.76
2019-03-28T04:08:16.559Z,8.75
2019-03-28T04:10:47.435Z,8.70
2019-03-28T04:13:18.332Z,8.68
2019-03-28T04:15:49.066Z,8.52
2019-03-28T04:18:22.068Z,8.70
2019-03-28T04:20:52.504Z,8.68
2019-03-28T04:23:23.440Z,8.71
2019-03-28T04:25:54.152Z,8.59
2019-03-28T04:28:32.239Z,8.64
2019-03-28T04:30:57.145Z,8.66
2019-03-28T04:33:30.528Z,8.66
2019-03-28T04:36:01.212Z,8.71
2019-03-28T04:38:31.995Z,8.74
2019-03-28T04:41:02.795Z,8.74
2019-03-28T04:43:33.609Z,8.70
2019-03-28T04:46:04.440Z,8.64
2019-03-28T04:48:36.821Z,8.56
2019-03-28T04:51:07.663Z,8.64
2019-03-28T04:53:38.513Z,8.77
2019-03-28T04:56:09.297Z,8.66
2019-03-28T04:58:44.798Z,8.61
2019-03-28T05:01:12.349Z,8.61
2019-03-28T05:03:43.160Z,8.76
2019-03-28T05:06:14.107Z,8.60
2019-03-28T05:08:45.157Z,8.60
2019-03-28T05:11:17.426Z,8.58
2019-03-28T05:13:48.162Z,8.63
2019-03-28T05:16:19.146Z,8.69
2019-03-28T05:18:50.149Z,8.72
2019-03-28T05:21:21.079Z,8.72
2019-03-28T05:23:51.992Z,8.62
2019-03-28T05:26:23.671Z,8.68
2019-03-28T05:28:57.807Z,8.60
2019-03-28T05:31:27.412Z,8.70
2019-03-28T05:34:01.301Z,8.73
2019-03-28T05:36:38.218Z,8.76
2019-03-28T05:39:10.586Z,8.64
2019-03-28T05:41:41.421Z,8.55
2019-03-28T05:44:11.916Z,8.72
2019-03-28T05:46:42.770Z,8.61
2019-03-28T05:49:13.488Z,8.68
2019-03-28T05:51:45.930Z,8.73
2019-03-28T05:54:19.536Z,8.82
2019-03-28T05:56:50.412Z,8.67
2019-03-28T05:59:20.855Z,8.77
2019-03-28T06:01:51.739Z,8.66
2019-03-28T06:04:22.716Z,8.69
2019-03-28T06:06:53.455Z,8.81
2019-03-28T06:09:24.372Z,8.84
2019-03-28T06:11:55.332Z,8.70
2019-03-28T06:14:27.680Z,8.85
2019-03-28T06:16:58.438Z,8.94
2019-03-28T06:19:29.388Z,8.84
2019-03-28T06:22:00.225Z,8.88
2019-03-28T06:24:31.344Z,8.87
2019-03-28T06:27:02.384Z,8.72
2019-03-28T06:29:33.219Z,8.88
2019-03-28T06:32:04.279Z,8.88
2019-03-28T06:34:35.208Z,8.91
2019-03-28T06:37:07.762Z,8.86
2019-03-28T06:39:38.595Z,8.82
2019-03-28T06:42:09.378Z,8.80
2019-03-28T06:44:40.167Z,8.81
2019-03-28T06:47:12.296Z,8.96
2019-03-28T06:49:42.770Z,8.77
2019-03-28T06:52:13.687Z,8.88
2019-03-28T06:54:44.554Z,9.04
2019-03-28T06:57:15.278Z,8.76
2019-03-28T06:59:47.692Z,8.90
2019-03-28T07:02:21.693Z,8.92
2019-03-28T07:04:51.059Z,8.96
2019-03-28T07:07:21.984Z,8.92
2019-03-28T07:09:53.054Z,8.85
2019-03-28T07:12:23.910Z,9.16
2019-03-28T07:14:54.820Z,8.84
2019-03-28T07:17:25.595Z,8.93
2019-03-28T07:19:56.412Z,8.99
2019-03-28T07:22:27.881Z,8.98
2019-03-28T07:24:58.778Z,8.89
2019-03-28T07:27:29.772Z,8.92
2019-03-28T07:30:00.781Z,9.01
2019-03-28T07:32:31.702Z,8.96
2019-03-28T07:35:02.553Z,8.92
2019-03-28T07:37:35.040Z,8.97
2019-03-28T07:40:07.109Z,8.92
2019-03-28T07:42:38.219Z,9.06
2019-03-28T07:45:09.693Z,9.08
2019-03-28T07:47:40.516Z,9.09
2019-03-28T07:50:12.943Z,9.09
2019-03-28T07:52:43.851Z,9.26
2019-03-28T07:55:16.511Z,9.16
2019-03-28T07:57:47.060Z,9.10
2019-03-28T08:00:18.096Z,9.16
2019-03-28T08:02:49.012Z,9.25
2019-03-28T08:05:20.048Z,9.38
2019-03-28T08:07:50.780Z,9.27
2019-03-28T08:10:21.610Z,9.30
2019-03-28T08:12:52.610Z,9.42
2019-03-28T08:15:23.556Z,9.40
2019-03-28T08:17:54.472Z,9.30
2019-03-28T08:20:25.569Z,9.36
2019-03-28T08:22:56.332Z,9.53
2019-03-28T08:25:27.217Z,9.55
2019-03-28T08:27:58.230Z,9.44
2019-03-28T08:30:34.728Z,9.43
2019-03-28T08:33:06.764Z,9.42
2019-03-28T08:35:38.231Z,9.60
2019-03-28T08:38:10.194Z,9.50
2019-03-28T08:40:44.066Z,9.56
2019-03-28T08:43:15.114Z,9.53
2019-03-28T08:45:46.134Z,9.48
2019-03-28T08:48:17.038Z,9.64
2019-03-28T08:50:47.919Z,9.73
2019-03-28T08:53:20.099Z,9.58
2019-03-28T08:55:51.251Z,9.77
2019-03-28T08:58:22.234Z,9.64
2019-03-28T09:00:53.252Z,9.66
2019-03-28T09:03:24.067Z,9.69
2019-03-28T09:05:54.888Z,9.80
2019-03-28T09:08:25.578Z,9.64
2019-03-28T09:10:56.371Z,9.76
2019-03-28T09:13:27.296Z,9.56
2019-03-28T09:15:57.867Z,9.58
2019-03-28T09:18:28.649Z,9.66
2019-03-28T09:20:59.187Z,9.80
2019-03-28T09:23:29.772Z,9.60
2019-03-28T09:26:00.560Z,9.75
2019-03-28T09:28:31.075Z,9.52
2019-03-28T09:31:02.424Z,9.62
2019-03-28T09:33:33.465Z,9.52
2019-03-28T09:36:03.911Z,9.72
2019-03-28T09:38:34.767Z,9.68
2019-03-28T09:41:05.717Z,9.64
2019-03-28T09:43:36.638Z,9.82
2019-03-28T09:46:07.543Z,9.64
2019-03-28T09:48:38.324Z,9.60
2019-03-28T09:51:08.784Z,9.62
2019-03-28T09:53:39.781Z,9.74
2019-03-28T09:56:10.684Z,9.58
2019-03-28T09:58:41.444Z,9.78
2019-03-28T10:01:12.298Z,9.72
2019-03-28T10:03:43.206Z,9.70
2019-03-28T10:06:14.084Z,9.72
2019-03-28T10:08:45.086Z,9.80
2019-03-28T10:11:15.602Z,9.72
2019-03-28T10:13:46.464Z,9.53
2019-03-28T10:16:17.298Z,9.78
2019-03-28T10:18:48.155Z,9.57
2019-03-28T10:21:19.185Z,9.90
2019-03-28T10:23:49.991Z,9.75
2019-03-28T10:26:20.825Z,9.84
2019-03-28T10:28:51.907Z,9.86
2019-03-28T10:31:22.390Z,9.74
2019-03-28T10:33:53.278Z,9.81
2019-03-28T10:36:24.095Z,9.78
2019-03-28T10:38:54.999Z,10.02
2019-03-28T10:41:25.981Z,9.90
2019-03-28T10:43:56.998Z,9.84
2019-03-28T10:46:27.503Z,9.86
2019-03-28T10:48:58.271Z,10.09
2019-03-28T10:51:30.241Z,10.09
2019-03-28T10:54:01.113Z,9.94
2019-03-28T10:56:32.100Z,10.02
2019-03-28T10:59:02.627Z,10.16
2019-03-28T11:01:47.985Z,10.26
2019-03-28T11:04:06.196Z,10.30
2019-03-28T11:06:36.735Z,10.29
2019-03-28T11:09:08.588Z,10.36
2019-03-28T11:11:39.693Z,10.27
2019-03-28T11:14:10.203Z,10.28
2019-03-28T11:16:40.991Z,10.37
2019-03-28T11:19:11.791Z,10.28
2019-03-28T11:21:42.783Z,10.33
2019-03-28T11:24:13.568Z,10.37
2019-03-28T11:26:44.153Z,10.04
2019-03-28T11:29:14.749Z,10.17
2019-03-28T11:31:46.814Z,10.13
2019-03-28T11:34:17.378Z,10.37
2019-03-28T11:36:48.159Z,10.50
2019-03-28T11:39:18.741Z,10.27
2019-03-28T11:41:49.329Z,10.32
2019-03-28T11:44:20.080Z,10.32
2019-03-28T11:46:50.567Z,10.38
2019-03-28T11:49:21.557Z,10.67
2019-03-28T11:51:52.041Z,10.46
2019-03-28T11:54:22.789Z,10.66
2019-03-28T11:56:53.432Z,10.38
2019-03-28T11:59:24.317Z,10.44
2019-03-28T12:02:00.462Z,10.33
2019-03-28T12:04:28.747Z,10.35
2019-03-28T12:06:59.523Z,10.20
2019-03-28T12:09:30.464Z,10.42
2019-03-28T12:12:01.314Z,10.53
2019-03-28T12:14:32.177Z,10.48
2019-03-28T12:17:03.065Z,10.29
2019-03-28T12:19:35.059Z,10.31
2019-03-28T12:22:05.786Z,10.36
2019-03-28T12:24:36.319Z,10.43
2019-03-28T12:27:06.877Z,10.30
2019-03-28T12:29:37.823Z,10.29
2019-03-28T12:32:14.243Z,10.28
2019-03-28T12:34:40.713Z,10.50
2019-03-28T12:37:11.543Z,10.22
2019-03-28T12:39:42.358Z,10.15
2019-03-28T12:42:13.397Z,10.28
2019-03-28T12:44:56.290Z,10.16
2019-03-28T12:47:16.913Z,10.13
2019-03-28T12:49:47.767Z,9.99
2019-03-28T12:52:18.807Z,10.14
2019-03-28T12:54:49.657Z,10.07
2019-03-28T12:57:20.131Z,10.12
2019-03-28T12:59:53.470Z,10.14
2019-03-28T13:02:31.371Z,10.06
2019-03-28T13:04:56.066Z,10.35
2019-03-28T13:07:26.883Z,10.46
2019-03-28T13:09:57.835Z,10.36
2019-03-28T13:12:28.775Z,10.36
2019-03-28T13:14:59.758Z,10.32
2019-03-28T13:17:30.265Z,10.46
2019-03-28T13:20:01.117Z,10.64
2019-03-28T13:22:31.668Z,10.69
2019-03-28T13:25:02.868Z,10.58
2019-03-28T13:27:34.731Z,10.32
2019-03-28T13:30:12.094Z,10.50
2019-03-28T13:32:44.138Z,10.40
2019-03-28T13:35:15.014Z,10.49
2019-03-28T13:37:48.494Z,10.48
2019-03-28T13:40:18.834Z,10.60
2019-03-28T13:42:52.781Z,10.68
2019-03-28T13:45:22.223Z,10.60
2019-03-28T13:47:54.414Z,10.55
2019-03-28T13:50:28.250Z,10.64
2019-03-28T13:53:00.329Z,10.43
2019-03-28T13:55:31.086Z,10.56
2019-03-28T13:58:01.625Z,10.56
2019-03-28T14:00:33.916Z,10.61
2019-03-28T14:03:04.848Z,10.60
2019-03-28T14:05:36.853Z,10.55
2019-03-28T14:08:07.745Z,10.67
2019-03-28T14:10:40.295Z,10.66
2019-03-28T14:13:11.118Z,10.83
2019-03-28T14:15:44.618Z,10.61
2019-03-28T14:18:15.532Z,10.60
2019-03-28T14:20:46.449Z,10.46
2019-03-28T14:23:17.927Z,10.34
2019-03-28T14:25:49.334Z,10.52
2019-03-28T14:28:19.823Z,10.55
2019-03-28T14:30:50.616Z,10.63
2019-03-28T14:33:21.150Z,10.35
2019-03-28T14:35:51.683Z,10.41
2019-03-28T14:38:22.585Z,10.38
2019-03-28T14:40:53.339Z,10.26
2019-03-28T14:43:24.188Z,10.29
2019-03-28T14:45:55.024Z,10.34
2019-03-28T14:48:25.927Z,10.33
2019-03-28T14:50:57.459Z,10.39
2019-03-28T14:53:28.841Z,10.60
2019-03-28T14:56:00.922Z,10.76
2019-03-28T14:58:35.127Z,10.48
2019-03-28T15:01:09.026Z,10.31
2019-03-28T15:03:44.684Z,10.38
2019-03-28T15:06:12.349Z,10.43
2019-03-28T15:08:43.547Z,10.44
2019-03-28T15:11:14.746Z,10.53
2019-03-28T15:13:45.573Z,10.56
2019-03-28T15:16:16.400Z,10.60
2019-03-28T15:18:47.260Z,10.70
2019-03-28T15:21:18.090Z,10.57
2019-03-28T15:23:48.824Z,10.54
2019-03-28T15:26:19.998Z,10.54
2019-03-28T15:28:50.912Z,10.40
2019-03-28T15:31:21.865Z,10.34
2019-03-28T15:33:52.677Z,10.32
2019-03-28T15:36:23.571Z,10.32
2019-03-28T15:38:55.900Z,10.33
2019-03-28T15:41:26.313Z,10.28
2019-03-28T15:43:57.162Z,10.50
2019-03-28T15:46:28.009Z,10.58
2019-03-28T15:48:59.048Z,10.40
2019-03-28T15:51:29.615Z,10.32
2019-03-28T15:54:00.434Z,10.30
2019-03-28T15:56:30.970Z,10.39
2019-03-28T15:59:01.926Z,10.33
2019-03-28T16:01:33.618Z,10.38
2019-03-28T16:04:04.821Z,10.18
2019-03-28T16:06:41.568Z,10.26
2019-03-28T16:09:12.606Z,10.22
2019-03-28T16:11:43.634Z,10.07
2019-03-28T16:14:14.524Z,10.26
2019-03-28T16:16:45.425Z,10.24
2019-03-28T16:19:16.706Z,10.22
2019-03-28T16:21:47.784Z,10.08
2019-03-28T16:24:20.218Z,10.06
2019-03-28T16:26:52.628Z,10.20
2019-03-28T16:29:34.814Z,10.04
2019-03-28T16:32:07.608Z,10.04
2019-03-28T16:34:43.360Z,10.05
2019-03-28T16:37:13.112Z,9.98
2019-03-28T16:39:43.915Z,10.00
2019-03-28T16:42:15.763Z,10.18
2019-03-28T16:44:50.758Z,10.14
2019-03-28T16:47:21.741Z,9.99
2019-03-28T16:49:54.174Z,10.01
2019-03-28T16:52:24.950Z,9.82
2019-03-28T16:54:58.500Z,9.91
2019-03-28T16:57:29.454Z,10.12
2019-03-28T17:00:01.690Z,10.16
2019-03-28T17:02:34.064Z,10.06
2019-03-28T17:05:08.686Z,10.20
2019-03-28T17:07:40.516Z,9.95
2019-03-28T17:10:14.055Z,10.10
2019-03-28T17:12:46.578Z,10.06
2019-03-28T17:15:17.735Z,10.08
2019-03-28T17:17:50.688Z,9.98
2019-03-28T17:20:21.066Z,9.92
2019-03-28T17:22:51.805Z,10.18
2019-03-28T17:25:22.916Z,9.96
2019-03-28T17:27:53.745Z,9.89
2019-03-28T17:30:24.788Z,10.10
2019-03-28T17:32:55.591Z,10.16
2019-03-28T17:35:26.383Z,9.90
2019-03-28T17:37:58.311Z,10.03
2019-03-28T17:40:29.924Z,10.04
2019-03-28T17:43:01.670Z,10.06
2019-03-28T17:45:32.553Z,9.94
2019-03-28T17:48:03.366Z,10.08
2019-03-28T17:50:35.480Z,10.10
2019-03-28T17:53:06.611Z,10.00
2019-03-28T17:55:37.413Z,9.96
2019-03-28T17:58:08.709Z,9.97
2019-03-28T18:00:39.839Z,10.01
2019-03-28T18:03:10.657Z,10.02
2019-03-28T18:05:42.494Z,9.98
2019-03-28T18:08:13.381Z,9.96
2019-03-28T18:10:44.532Z,10.08
2019-03-28T18:13:14.983Z,10.06
2019-03-28T18:15:45.845Z,10.03
2019-03-28T18:18:16.788Z,10.03
2019-03-28T18:20:47.718Z,10.10
2019-03-28T18:23:18.675Z,10.18
2019-03-28T18:25:49.467Z,10.08
2019-03-28T18:28:20.347Z,10.02
2019-03-28T18:30:51.256Z,10.10
2019-03-28T18:33:22.110Z,10.11
2019-03-28T18:35:53.088Z,10.02
2019-03-28T18:38:23.522Z,9.90
2019-03-28T18:40:53.971Z,10.06
2019-03-28T18:43:26.307Z,10.22
2019-03-28T18:45:57.062Z,10.08
2019-03-28T18:48:35.843Z,9.92
2019-03-28T18:51:00.364Z,10.10
2019-03-28T18:53:31.375Z,10.12
2019-03-28T18:56:02.191Z,10.16
2019-03-28T18:58:33.130Z,10.35
2019-03-28T19:01:04.043Z,10.08
2019-03-28T19:03:35.329Z,10.06
2019-03-28T19:06:06.233Z,9.94
2019-03-28T19:08:36.783Z,10.00
2019-03-28T19:11:07.599Z,9.92
2019-03-28T19:13:39.652Z,9.83
2019-03-28T19:16:10.613Z,9.97
2019-03-28T19:18:41.601Z,9.90
2019-03-28T19:21:12.497Z,10.07
2019-03-28T19:23:43.455Z,10.00
2019-03-28T19:26:15.887Z,9.90
2019-03-28T19:28:46.730Z,9.96
2019-03-28T19:31:17.458Z,9.93
2019-03-28T19:33:48.433Z,9.75
2019-03-28T19:36:19.269Z,9.60
2019-03-28T19:38:50.881Z,9.64
2019-03-28T19:41:21.681Z,9.69
2019-03-28T19:44:02.975Z,9.65
2019-03-28T19:46:33.757Z,9.74
2019-03-28T19:49:04.709Z,9.67
2019-03-28T19:51:36.837Z,9.63
2019-03-28T19:54:07.801Z,9.62
2019-03-28T19:56:43.423Z,9.70
2019-03-28T19:59:14.223Z,9.79
2019-03-28T20:01:45.291Z,9.60
2019-03-28T20:04:17.723Z,9.57
2019-03-28T20:06:48.657Z,9.60
2019-03-28T20:09:19.471Z,9.58
2019-03-28T20:11:53.203Z,9.63
2019-03-28T20:14:24.026Z,9.68
2019-03-28T20:16:56.041Z,9.67
2019-03-28T20:19:26.949Z,9.60
2019-03-28T20:21:59.519Z,9.74
2019-03-28T20:24:33.386Z,9.82
2019-03-28T20:27:04.361Z,9.64
2019-03-28T20:29:39.954Z,9.66
2019-03-28T20:32:11.839Z,9.66
2019-03-28T20:34:42.532Z,9.63
2019-03-28T20:37:14.925Z,9.57
2019-03-28T20:39:45.794Z,9.66
2019-03-28T20:42:16.559Z,9.66
2019-03-28T20:44:47.271Z,9.80
2019-03-28T20:47:18.175Z,9.80
2019-03-28T20:49:50.596Z,9.78
2019-03-28T20:52:22.886Z,9.72
2019-03-28T20:54:53.836Z,9.69
2019-03-28T20:57:24.789Z,9.64
2019-03-28T20:59:55.692Z,9.64
2019-03-28T21:02:26.610Z,9.71
2019-03-28T21:05:01.059Z,9.64
2019-03-28T21:07:32.280Z,9.70
2019-03-28T21:10:03.690Z,9.80
2019-03-28T21:12:34.829Z,9.79
2019-03-28T21:15:07.413Z,9.82
2019-03-28T21:17:38.186Z,9.82
2019-03-28T21:20:09.137Z,9.80
2019-03-28T21:22:39.933Z,9.84
2019-03-28T21:25:10.537Z,9.91
2019-03-28T21:27:41.588Z,9.88
2019-03-28T21:30:13.096Z,9.98
2019-03-28T21:32:54.633Z,9.92
2019-03-28T21:35:16.478Z,9.90
2019-03-28T21:37:47.326Z,9.98
2019-03-28T21:40:23.546Z,9.88
2019-03-28T21:42:54.382Z,9.83
2019-03-28T21:45:42.075Z,9.85
2019-03-28T21:48:23.386Z,9.92
2019-03-28T21:50:57.027Z,9.92
2019-03-28T21:53:33.054Z,9.94
2019-03-28T21:56:04.370Z,9.94
2019-03-28T21:58:35.558Z,9.82
2019-03-28T22:01:07.142Z,9.97
2019-03-28T22:03:39.822Z,9.90
2019-03-28T22:06:10.449Z,9.91
2019-03-28T22:08:41.337Z,9.90
2019-03-28T22:11:12.308Z,9.83
2019-03-28T22:13:43.081Z,9.95
2019-03-28T22:16:14.042Z,9.86
2019-03-28T22:18:45.164Z,9.82
2019-03-28T22:21:16.023Z,9.80
2019-03-28T22:23:47.036Z,9.86
2019-03-28T22:26:17.748Z,10.04
2019-03-28T22:28:49.018Z,9.90
2019-03-28T22:31:19.848Z,9.98
2019-03-28T22:33:50.787Z,9.85
2019-03-28T22:36:21.518Z,9.84
2019-03-28T22:38:52.372Z,9.87
2019-03-28T22:41:22.894Z,9.88
2019-03-28T22:43:54.165Z,9.92
2019-03-28T22:46:25.068Z,9.84
2019-03-28T22:48:55.844Z,9.94
2019-03-28T22:51:27.393Z,9.92
2019-03-28T22:53:58.422Z,9.92
2019-03-28T22:56:29.262Z,9.98
2019-03-28T22:59:00.284Z,9.99
2019-03-28T23:01:31.430Z,9.92
2019-03-28T23:04:08.400Z,9.87
2019-03-28T23:06:39.390Z,9.91
2019-03-28T23:09:13.390Z,9.94
2019-03-28T23:11:44.955Z,10.00
2019-03-28T23:14:15.766Z,9.98
2019-03-28T23:16:46.696Z,10.02
2019-03-28T23:19:17.396Z,10.00
2019-03-28T23:21:48.156Z,9.94
2019-03-28T23:24:19.129Z,9.92
2019-03-28T23:26:49.954Z,10.02
2019-03-28T23:29:20.810Z,9.98
2019-03-28T23:31:51.617Z,9.97
2019-03-28T23:34:22.912Z,10.14
2019-03-28T23:36:55.419Z,10.00
2019-03-28T23:39:26.150Z,10.02
2019-03-28T23:41:56.553Z,9.93
2019-03-28T23:44:27.813Z,9.90
2019-03-28T23:46:58.658Z,9.95
2019-03-28T23:49:29.055Z,9.96
2019-03-28T23:51:59.852Z,9.92
2019-03-28T23:54:30.798Z,9.93
2019-03-28T23:57:04.917Z,9.81
2019-03-28T23:59:35.744Z,9.96
